Impacts TAF Board INFO
FOR SITUATIONAL AWARENESS. NOT TO BE USED FOR FLIGHT PLANNING PURPOSES.
IDs:

KEWR - Newark Intl, NJ, US

Issued at 1341 UTC 21 Nov 2017
Updated at 1346 UTC 21 Nov 2017
Potential Impact None Slight Moderate High
Time1251Z 21/14Z 21/15Z 21/16Z 21/17Z 21/18Z 21/19Z 21/20Z 21/21Z 21/22Z 21/23Z 22/00Z 22/01Z 22/02Z>>
Type OBS PRVL PRVL PRVL PRVL PRVL PRVL PRVL PRVL PRVL PRVL PRVL PRVL PRVL
VIS 10 >6 >6 >6 >6 >6 >6 >6 >6 >6 >6 >6 >6 >6
CIG -- -- -- -- -- -- -- -- -- 250 250 250 -- --
Cover SCT SCT SCT SCT SCT SCT SCT SCT SCT BKN BKN BKN SCT SCT
FltCat VFR VFR VFR VFR VFR VFR VFR VFR VFR VFR VFR VFR VFR VFR
WX -- -- -- -- -- -- -- -- -- -- -- -- -- --
WDir VRB 220 220 220 220 220 220 220 220 210 210 210 210 210
WSpd 0 9 12 12 12 12 12 12 12 10 10 10 8 8
WGst -- -- 20 20 20 20 20 20 20 -- -- -- -- --

Raw TAF
KEWR 211341Z 2114/2218 22009KT P6SM SCT250
  FM211500 22012G20KT P6SM SCT250
  FM212200 21010KT P6SM BKN250
  FM220100 21008KT P6SM SCT250
  FM220400 VRB04KT P6SM BKN250
  FM220700 VRB04KT P6SM SCT020 BKN040
  FM220900 VRB04KT 5SM -RA BR OVC020
  FM221300 27007KT P6SM BKN050
  FM221500 31013G21KT P6SM BKN080


Raw METAR
KEWR 211251Z 00000KT 10SM SCT250 04/M01 A3014 RMK AO2 SLP205 T00441011 $
KEWR 211151Z 25004KT 10SM BKN250 03/M03 A3013 RMK AO2 SLP203 T00281028 10039 20022 53001 $
KEWR 211051Z 27004KT 10SM SCT250 03/M03 A3014 RMK AO2 SLP204 T00281028 $

METAR Board
Radar Display
Forecast Discussion

FOR SITUATIONAL AWARENESS. NOT TO BE USED FOR FLIGHT PLANNING PURPOSES.